sensor_id;sensor_type;location;lat;lon;timestamp;pressure;altitude;pressure_sealevel;temperature;humidity
32298;BME280;18782;48.984;8.548;2022-10-16T00:01:43;99751.69;;;16.02;100.00
32298;BME280;18782;48.984;8.548;2022-10-16T00:04:11;99762.06;;;16.02;100.00
32298;BME280;18782;48.984;8.548;2022-10-16T00:06:39;99765.53;;;16.02;100.00
32298;BME280;18782;48.984;8.548;2022-10-16T00:09:06;99763.78;;;16.01;100.00
32298;BME280;18782;48.984;8.548;2022-10-16T00:11:35;99762.09;;;16.03;100.00
32298;BME280;18782;48.984;8.548;2022-10-16T00:14:07;99769.88;;;16.05;100.00
32298;BME280;18782;48.984;8.548;2022-10-16T00:16:35;99769.88;;;16.05;100.00
32298;BME280;18782;48.984;8.548;2022-10-16T00:19:05;99775.06;;;16.05;100.00
32298;BME280;18782;48.984;8.548;2022-10-16T00:21:34;99768.13;;;16.07;100.00
32298;BME280;18782;48.984;8.548;2022-10-16T00:24:04;99767.28;;;16.08;100.00
32298;BME280;18782;48.984;8.548;2022-10-16T00:26:33;99763.81;;;16.09;100.00
32298;BME280;18782;48.984;8.548;2022-10-16T00:29:02;99764.69;;;16.08;100.00
32298;BME280;18782;48.984;8.548;2022-10-16T00:31:31;99768.13;;;16.07;100.00
32298;BME280;18782;48.984;8.548;2022-10-16T00:33:58;99765.53;;;16.07;100.00
32298;BME280;18782;48.984;8.548;2022-10-16T00:36:27;99773.31;;;16.07;100.00
32298;BME280;18782;48.984;8.548;2022-10-16T00:38:56;99768.13;;;16.07;100.00
32298;BME280;18782;48.984;8.548;2022-10-16T00:41:27;99766.41;;;16.09;100.00
32298;BME280;18782;48.984;8.548;2022-10-16T00:43:56;99766.41;;;16.09;100.00
32298;BME280;18782;48.984;8.548;2022-10-16T00:46:26;99769.88;;;16.08;100.00
32298;BME280;18782;48.984;8.548;2022-10-16T00:48:59;99766.41;;;16.09;100.00
32298;BME280;18782;48.984;8.548;2022-10-16T00:51:30;99763.81;;;16.09;100.00
32298;BME280;18782;48.984;8.548;2022-10-16T00:53:59;99762.94;;;16.10;100.00
32298;BME280;18782;48.984;8.548;2022-10-16T00:56:27;99760.34;;;16.11;100.00
32298;BME280;18782;48.984;8.548;2022-10-16T00:58:54;99762.91;;;16.13;100.00
32298;BME280;18782;48.984;8.548;2022-10-16T01:01:22;99774.19;;;16.13;100.00
32298;BME280;18782;48.984;8.548;2022-10-16T01:03:50;99773.31;;;16.16;100.00
32298;BME280;18782;48.984;8.548;2022-10-16T01:06:32;99773.31;;;16.17;100.00
32298;BME280;18782;48.984;8.548;2022-10-16T01:09:12;99785.44;;;16.17;100.00
32298;BME280;18782;48.984;8.548;2022-10-16T01:11:46;99796.69;;;16.17;100.00
32298;BME280;18782;48.984;8.548;2022-10-16T01:14:22;99791.50;;;16.19;100.00
32298;BME280;18782;48.984;8.548;2022-10-16T01:16:56;99795.84;;;16.18;100.00
32298;BME280;18782;48.984;8.548;2022-10-16T01:19:44;99793.22;;;16.20;100.00
32298;BME280;18782;48.984;8.548;2022-10-16T01:22:20;99801.03;;;16.20;100.00
32298;BME280;18782;48.984;8.548;2022-10-16T01:24:52;99794.94;;;16.18;100.00
32298;BME280;18782;48.984;8.548;2022-10-16T01:27:25;99795.81;;;16.17;100.00
32298;BME280;18782;48.984;8.548;2022-10-16T01:29:58;99795.81;;;16.17;100.00
32298;BME280;18782;48.984;8.548;2022-10-16T01:32:34;99794.09;;;16.16;100.00
32298;BME280;18782;48.984;8.548;2022-10-16T01:35:07;99794.09;;;16.16;100.00
32298;BME280;18782;48.984;8.548;2022-10-16T01:37:37;99782.84;;;16.14;100.00
32298;BME280;18782;48.984;8.548;2022-10-16T01:40:10;99787.16;;;16.12;100.00
32298;BME280;18782;48.984;8.548;2022-10-16T01:42:42;99782.84;;;16.11;100.00
32298;BME280;18782;48.984;8.548;2022-10-16T01:45:13;99781.13;;;16.14;100.00
32298;BME280;18782;48.984;8.548;2022-10-16T01:47:45;99771.56;;;16.12;100.00
32298;BME280;18782;48.984;8.548;2022-10-16T01:50:15;99764.66;;;16.11;100.00
32298;BME280;18782;48.984;8.548;2022-10-16T01:52:47;99769.88;;;16.08;100.00
32298;BME280;18782;48.984;8.548;2022-10-16T01:55:18;99768.16;;;16.04;100.00
32298;BME280;18782;48.984;8.548;2022-10-16T01:57:50;99772.44;;;16.02;100.00
32298;BME280;18782;48.984;8.548;2022-10-16T02:00:20;99765.53;;;16.01;100.00
32298;BME280;18782;48.984;8.548;2022-10-16T02:02:51;99765.53;;;15.99;100.00
32298;BME280;18782;48.984;8.548;2022-10-16T02:05:25;99780.25;;;15.99;100.00
32298;BME280;18782;48.984;8.548;2022-10-16T02:07:53;99775.06;;;15.96;100.00
32298;BME280;18782;48.984;8.548;2022-10-16T02:10:24;99773.31;;;15.95;100.00
32298;BME280;18782;48.984;8.548;2022-10-16T02:12:57;99771.59;;;15.94;100.00
32298;BME280;18782;48.984;8.548;2022-10-16T02:15:26;99768.13;;;15.91;100.00
32298;BME280;18782;48.984;8.548;2022-10-16T02:17:54;99781.97;;;15.90;100.00
32298;BME280;18782;48.984;8.548;2022-10-16T02:20:25;99788.91;;;15.88;100.00
32298;BME280;18782;48.984;8.548;2022-10-16T02:22:56;99788.03;;;15.86;100.00
32298;BME280;18782;48.984;8.548;2022-10-16T02:25:28;99794.09;;;15.85;100.00
32298;BME280;18782;48.984;8.548;2022-10-16T02:28:03;99787.16;;;15.84;100.00
32298;BME280;18782;48.984;8.548;2022-10-16T02:30:36;99801.88;;;15.84;100.00
32298;BME280;18782;48.984;8.548;2022-10-16T02:33:08;99800.13;;;15.81;100.00
32298;BME280;18782;48.984;8.548;2022-10-16T02:35:38;99795.81;;;15.83;100.00
32298;BME280;18782;48.984;8.548;2022-10-16T02:38:06;99801.00;;;15.80;100.00
32298;BME280;18782;48.984;8.548;2022-10-16T02:40:36;99802.75;;;15.78;100.00
32298;BME280;18782;48.984;8.548;2022-10-16T02:43:06;99800.13;;;15.80;100.00
32298;BME280;18782;48.984;8.548;2022-10-16T02:45:34;99798.41;;;15.77;100.00
32298;BME280;18782;48.984;8.548;2022-10-16T02:48:01;99803.59;;;15.76;100.00
32298;BME280;18782;48.984;8.548;2022-10-16T02:50:29;99799.28;;;15.73;100.00
32298;BME280;18782;48.984;8.548;2022-10-16T02:52:56;99797.53;;;15.69;100.00
32298;BME280;18782;48.984;8.548;2022-10-16T02:55:24;99794.09;;;15.67;100.00
32298;BME280;18782;48.984;8.548;2022-10-16T02:57:52;99802.75;;;15.66;100.00
32298;BME280;18782;48.984;8.548;2022-10-16T03:00:21;99804.44;;;15.61;100.00
32298;BME280;18782;48.984;8.548;2022-10-16T03:02:49;99802.66;;;15.60;100.00
32298;BME280;18782;48.984;8.548;2022-10-16T03:05:17;99804.41;;;15.58;100.00
32298;BME280;18782;48.984;8.548;2022-10-16T03:07:45;99809.59;;;15.58;100.00
32298;BME280;18782;48.984;8.548;2022-10-16T03:10:12;99813.91;;;15.57;100.00
32298;BME280;18782;48.984;8.548;2022-10-16T03:12:40;99813.91;;;15.57;100.00
32298;BME280;18782;48.984;8.548;2022-10-16T03:15:08;99819.97;;;15.56;100.00
32298;BME280;18782;48.984;8.548;2022-10-16T03:17:37;99813.91;;;15.59;100.00
32298;BME280;18782;48.984;8.548;2022-10-16T03:20:05;99819.13;;;15.57;100.00
32298;BME280;18782;48.984;8.548;2022-10-16T03:22:33;99819.97;;;15.58;100.00
32298;BME280;18782;48.984;8.548;2022-10-16T03:25:01;99821.69;;;15.53;100.00
32298;BME280;18782;48.984;8.548;2022-10-16T03:27:28;99816.50;;;15.54;100.00
32298;BME280;18782;48.984;8.548;2022-10-16T03:29:56;99821.69;;;15.53;100.00
32298;BME280;18782;48.984;8.548;2022-10-16T03:32:23;99813.91;;;15.48;100.00
32298;BME280;18782;48.984;8.548;2022-10-16T03:34:53;99809.56;;;15.49;100.00
32298;BME280;18782;48.984;8.548;2022-10-16T03:37:22;99818.19;;;15.45;100.00
32298;BME280;18782;48.984;8.548;2022-10-16T03:39:50;99808.69;;;15.45;100.00
32298;BME280;18782;48.984;8.548;2022-10-16T03:42:18;99819.94;;;15.44;100.00
32298;BME280;18782;48.984;8.548;2022-10-16T03:44:45;99819.06;;;15.44;100.00
32298;BME280;18782;48.984;8.548;2022-10-16T03:47:13;99824.25;;;15.45;100.00
32298;BME280;18782;48.984;8.548;2022-10-16T03:49:41;99824.25;;;15.45;100.00
32298;BME280;18782;48.984;8.548;2022-10-16T03:52:10;99830.31;;;15.44;100.00
32298;BME280;18782;48.984;8.548;2022-10-16T03:54:38;99833.75;;;15.43;100.00
32298;BME280;18782;48.984;8.548;2022-10-16T03:57:05;99822.53;;;15.41;100.00
32298;BME280;18782;48.984;8.548;2022-10-16T03:59:33;99817.31;;;15.38;100.00
32298;BME280;18782;48.984;8.548;2022-10-16T04:02:00;99826.84;;;15.37;100.00
32298;BME280;18782;48.984;8.548;2022-10-16T04:04:28;99804.34;;;15.36;100.00
32298;BME280;18782;48.984;8.548;2022-10-16T04:06:55;99800.91;;;15.36;100.00
32298;BME280;18782;48.984;8.548;2022-10-16T04:09:24;99806.94;;;15.33;100.00
32298;BME280;18782;48.984;8.548;2022-10-16T04:11:52;99812.09;;;15.29;100.00
32298;BME280;18782;48.984;8.548;2022-10-16T04:14:19;99812.09;;;15.27;100.00
32298;BME280;18782;48.984;8.548;2022-10-16T04:16:47;99814.69;;;15.27;100.00
32298;BME280;18782;48.984;8.548;2022-10-16T04:19:14;99816.44;;;15.25;100.00
32298;BME280;18782;48.984;8.548;2022-10-16T04:21:42;99811.22;;;15.22;100.00
32298;BME280;18782;48.984;8.548;2022-10-16T04:24:09;99823.31;;;15.23;100.00
32298;BME280;18782;48.984;8.548;2022-10-16T04:26:39;99836.28;;;15.22;100.00
32298;BME280;18782;48.984;8.548;2022-10-16T04:29:07;99841.47;;;15.22;100.00
32298;BME280;18782;48.984;8.548;2022-10-16T04:31:34;99842.34;;;15.22;100.00
32298;BME280;18782;48.984;8.548;2022-10-16T04:34:02;99844.06;;;15.20;100.00
32298;BME280;18782;48.984;8.548;2022-10-16T04:36:29;99854.44;;;15.20;100.00
32298;BME280;18782;48.984;8.548;2022-10-16T04:38:57;99849.25;;;15.20;100.00
32298;BME280;18782;48.984;8.548;2022-10-16T04:41:25;99859.63;;;15.20;100.00
32298;BME280;18782;48.984;8.548;2022-10-16T04:43:53;99863.09;;;15.19;100.00
32298;BME280;18782;48.984;8.548;2022-10-16T04:46:21;99866.53;;;15.15;100.00
32298;BME280;18782;48.984;8.548;2022-10-16T04:48:49;99876.03;;;15.16;100.00
32298;BME280;18782;48.984;8.548;2022-10-16T04:51:16;99863.06;;;15.16;100.00
32298;BME280;18782;48.984;8.548;2022-10-16T04:53:45;99860.44;;;15.11;100.00
32298;BME280;18782;48.984;8.548;2022-10-16T04:56:12;99862.16;;;15.12;100.00
32298;BME280;18782;48.984;8.548;2022-10-16T04:58:41;99863.03;;;15.10;100.00
32298;BME280;18782;48.984;8.548;2022-10-16T05:01:10;99859.56;;;15.08;100.00
32298;BME280;18782;48.984;8.548;2022-10-16T05:03:37;99863.00;;;15.07;100.00
32298;BME280;18782;48.984;8.548;2022-10-16T05:06:05;99850.91;;;15.06;100.00
32298;BME280;18782;48.984;8.548;2022-10-16T05:08:33;99860.41;;;15.05;100.00
32298;BME280;18782;48.984;8.548;2022-10-16T05:11:00;99865.59;;;15.05;100.00
32298;BME280;18782;48.984;8.548;2022-10-16T05:13:28;99861.25;;;15.03;100.00
32298;BME280;18782;48.984;8.548;2022-10-16T05:15:55;99869.91;;;15.02;100.00
32298;BME280;18782;48.984;8.548;2022-10-16T05:18:24;99872.50;;;15.02;100.00
32298;BME280;18782;48.984;8.548;2022-10-16T05:20:52;99863.00;;;15.01;100.00
32298;BME280;18782;48.984;8.548;2022-10-16T05:23:19;99863.00;;;15.01;100.00
32298;BME280;18782;48.984;8.548;2022-10-16T05:25:52;99861.25;;;15.00;100.00
32298;BME280;18782;48.984;8.548;2022-10-16T05:28:20;99874.22;;;15.01;100.00
32298;BME280;18782;48.984;8.548;2022-10-16T05:30:48;99875.09;;;15.02;100.00
32298;BME280;18782;48.984;8.548;2022-10-16T05:33:16;99875.13;;;15.05;100.00
32298;BME280;18782;48.984;8.548;2022-10-16T05:35:45;99890.69;;;15.12;100.00
32298;BME280;18782;48.984;8.548;2022-10-16T05:38:12;99883.78;;;15.13;100.00
32298;BME280;18782;48.984;8.548;2022-10-16T05:40:40;99887.25;;;15.15;100.00
32298;BME280;18782;48.984;8.548;2022-10-16T05:43:08;99880.34;;;15.17;100.00
32298;BME280;18782;48.984;8.548;2022-10-16T05:45:35;99886.44;;;15.19;100.00
32298;BME280;18782;48.984;8.548;2022-10-16T05:48:03;99889.03;;;15.19;100.00
32298;BME280;18782;48.984;8.548;2022-10-16T05:50:31;99895.06;;;15.20;100.00
32298;BME280;18782;48.984;8.548;2022-10-16T05:53:00;99891.59;;;15.21;100.00
32298;BME280;18782;48.984;8.548;2022-10-16T05:55:28;99901.94;;;15.18;100.00
32298;BME280;18782;48.984;8.548;2022-10-16T05:57:55;99895.03;;;15.15;100.00
32298;BME280;18782;48.984;8.548;2022-10-16T06:00:23;99889.00;;;15.16;100.00
32298;BME280;18782;48.984;8.548;2022-10-16T06:02:50;99883.81;;;15.16;100.00
32298;BME280;18782;48.984;8.548;2022-10-16T06:05:18;99888.13;;;15.16;100.00
32298;BME280;18782;48.984;8.548;2022-10-16T06:07:45;99897.66;;;15.21;100.00
32298;BME280;18782;48.984;8.548;2022-10-16T06:10:14;99899.38;;;15.19;100.00
32298;BME280;18782;48.984;8.548;2022-10-16T06:12:42;99895.06;;;15.21;100.00
32298;BME280;18782;48.984;8.548;2022-10-16T06:15:10;99887.28;;;15.21;100.00
32298;BME280;18782;48.984;8.548;2022-10-16T06:17:37;99903.69;;;15.19;100.00
32298;BME280;18782;48.984;8.548;2022-10-16T06:20:05;99913.19;;;15.18;100.00
32298;BME280;18782;48.984;8.548;2022-10-16T06:22:33;99910.59;;;15.17;100.00
32298;BME280;18782;48.984;8.548;2022-10-16T06:25:00;99902.84;;;15.24;100.00
32298;BME280;18782;48.984;8.548;2022-10-16T06:27:29;99912.38;;;15.28;100.00
32298;BME280;18782;48.984;8.548;2022-10-16T06:29:57;99908.91;;;15.26;100.00
32298;BME280;18782;48.984;8.548;2022-10-16T06:32:24;99916.69;;;15.20;100.00
32298;BME280;18782;48.984;8.548;2022-10-16T06:34:52;99918.38;;;15.18;100.00
32298;BME280;18782;48.984;8.548;2022-10-16T06:37:19;99921.00;;;15.20;100.00
32298;BME280;18782;48.984;8.548;2022-10-16T06:39:48;99926.16;;;15.18;100.00
32298;BME280;18782;48.984;8.548;2022-10-16T06:42:15;99933.97;;;15.24;100.00
32298;BME280;18782;48.984;8.548;2022-10-16T06:44:45;99934.84;;;15.28;100.00
32298;BME280;18782;48.984;8.548;2022-10-16T06:47:12;99940.94;;;15.33;100.00
32298;BME280;18782;48.984;8.548;2022-10-16T06:49:40;99944.44;;;15.41;100.00
32298;BME280;18782;48.984;8.548;2022-10-16T06:52:08;99947.91;;;15.42;100.00
32298;BME280;18782;48.984;8.548;2022-10-16T06:54:35;99947.06;;;15.46;100.00
32298;BME280;18782;48.984;8.548;2022-10-16T06:57:08;99942.72;;;15.45;100.00
32298;BME280;18782;48.984;8.548;2022-10-16T06:59:35;99940.97;;;15.44;100.00
32298;BME280;18782;48.984;8.548;2022-10-16T07:02:04;99939.25;;;15.43;100.00
32298;BME280;18782;48.984;8.548;2022-10-16T07:04:33;99946.19;;;15.47;100.00
32298;BME280;18782;48.984;8.548;2022-10-16T07:07:00;99950.50;;;15.43;100.00
32298;BME280;18782;48.984;8.548;2022-10-16T07:09:33;99949.66;;;15.49;100.00
32298;BME280;18782;48.984;8.548;2022-10-16T07:12:01;99956.59;;;15.53;100.00
32298;BME280;18782;48.984;8.548;2022-10-16T07:14:29;99954.84;;;15.49;100.00
32298;BME280;18782;48.984;8.548;2022-10-16T07:16:57;99952.28;;;15.56;100.00
32298;BME280;18782;48.984;8.548;2022-10-16T07:19:26;99955.81;;;15.64;100.00
32298;BME280;18782;48.984;8.548;2022-10-16T07:21:58;99949.75;;;15.70;100.00
32298;BME280;18782;48.984;8.548;2022-10-16T07:24:26;99949.78;;;15.76;100.00
32298;BME280;18782;48.984;8.548;2022-10-16T07:26:54;99959.34;;;15.82;100.00
32298;BME280;18782;48.984;8.548;2022-10-16T07:29:21;99967.16;;;15.89;100.00
32298;BME280;18782;48.984;8.548;2022-10-16T07:31:49;99965.44;;;15.98;100.00
32298;BME280;18782;48.984;8.548;2022-10-16T07:34:18;99977.59;;;16.12;100.00
32298;BME280;18782;48.984;8.548;2022-10-16T07:36:49;99969.81;;;16.20;100.00
32298;BME280;18782;48.984;8.548;2022-10-16T07:39:17;99963.78;;;16.27;100.00
32298;BME280;18782;48.984;8.548;2022-10-16T07:41:45;99974.16;;;16.33;100.00
32298;BME280;18782;48.984;8.548;2022-10-16T07:44:12;99976.78;;;16.44;100.00
32298;BME280;18782;48.984;8.548;2022-10-16T07:46:40;99979.41;;;16.46;100.00
32298;BME280;18782;48.984;8.548;2022-10-16T07:49:08;99976.78;;;16.47;100.00
32298;BME280;18782;48.984;8.548;2022-10-16T07:51:36;99982.84;;;16.54;100.00
32298;BME280;18782;48.984;8.548;2022-10-16T07:54:08;99992.38;;;16.56;100.00
32298;BME280;18782;48.984;8.548;2022-10-16T07:56:35;100002.78;;;16.61;100.00
32298;BME280;18782;48.984;8.548;2022-10-16T07:59:08;100003.66;;;16.69;100.00
32298;BME280;18782;48.984;8.548;2022-10-16T08:01:35;99999.34;;;16.80;100.00
32298;BME280;18782;48.984;8.548;2022-10-16T08:04:03;100012.38;;;16.86;100.00
32298;BME280;18782;48.984;8.548;2022-10-16T08:06:35;100011.50;;;16.93;100.00
32298;BME280;18782;48.984;8.548;2022-10-16T08:09:03;100003.69;;;17.03;100.00
32298;BME280;18782;48.984;8.548;2022-10-16T08:11:32;100011.47;;;17.10;100.00
32298;BME280;18782;48.984;8.548;2022-10-16T08:14:00;100003.66;;;17.24;100.00
32298;BME280;18782;48.984;8.548;2022-10-16T08:16:28;100014.94;;;17.29;100.00
32298;BME280;18782;48.984;8.548;2022-10-16T08:18:55;100011.44;;;17.27;99.22
32298;BME280;18782;48.984;8.548;2022-10-16T08:21:23;100004.50;;;17.28;98.73
32298;BME280;18782;48.984;8.548;2022-10-16T08:23:53;99989.75;;;17.39;98.54
32298;BME280;18782;48.984;8.548;2022-10-16T08:26:24;99995.81;;;17.41;98.17
32298;BME280;18782;48.984;8.548;2022-10-16T08:28:54;99991.44;;;17.54;98.67
32298;BME280;18782;48.984;8.548;2022-10-16T08:31:22;99994.88;;;17.59;98.92
32298;BME280;18782;48.984;8.548;2022-10-16T08:33:50;100000.09;;;17.65;98.51
32298;BME280;18782;48.984;8.548;2022-10-16T08:36:18;100008.75;;;17.67;98.13
32298;BME280;18782;48.984;8.548;2022-10-16T08:38:47;100014.81;;;17.73;97.66
32298;BME280;18782;48.984;8.548;2022-10-16T08:41:22;100012.22;;;17.81;97.98
32298;BME280;18782;48.984;8.548;2022-10-16T08:44:12;100023.44;;;17.92;97.72
32298;BME280;18782;48.984;8.548;2022-10-16T08:46:50;100030.28;;;18.10;97.29
32298;BME280;18782;48.984;8.548;2022-10-16T08:49:22;100030.25;;;18.22;96.83
32298;BME280;18782;48.984;8.548;2022-10-16T08:51:50;100033.63;;;18.38;96.52
32298;BME280;18782;48.984;8.548;2022-10-16T08:54:27;100032.63;;;18.56;95.06
32298;BME280;18782;48.984;8.548;2022-10-16T08:56:57;100038.63;;;18.76;93.45
32298;BME280;18782;48.984;8.548;2022-10-16T08:59:29;100037.63;;;18.91;92.66
32298;BME280;18782;48.984;8.548;2022-10-16T09:01:56;100047.88;;;19.13;91.95
32298;BME280;18782;48.984;8.548;2022-10-16T09:04:51;100056.41;;;19.33;91.63
32298;BME280;18782;48.984;8.548;2022-10-16T09:07:28;100058.00;;;19.46;89.66
32298;BME280;18782;48.984;8.548;2022-10-16T09:10:09;100058.78;;;19.58;89.17
32298;BME280;18782;48.984;8.548;2022-10-16T09:12:43;100055.97;;;19.79;86.99
32298;BME280;18782;48.984;8.548;2022-10-16T09:15:24;100062.59;;;20.04;87.46
32298;BME280;18782;48.984;8.548;2022-10-16T09:18:00;100058.78;;;20.31;85.12
32298;BME280;18782;48.984;8.548;2022-10-16T09:20:36;100067.03;;;20.66;84.78
32298;BME280;18782;48.984;8.548;2022-10-16T09:23:13;100065.97;;;20.79;83.75
32298;BME280;18782;48.984;8.548;2022-10-16T09:25:45;100065.28;;;20.68;82.58
32298;BME280;18782;48.984;8.548;2022-10-16T09:28:14;100072.09;;;20.78;82.34
32298;BME280;18782;48.984;8.548;2022-10-16T09:30:44;100079.84;;;20.82;81.20
32298;BME280;18782;48.984;8.548;2022-10-16T09:33:12;100082.50;;;20.81;81.68
32298;BME280;18782;48.984;8.548;2022-10-16T09:35:43;100092.06;;;20.82;80.78
32298;BME280;18782;48.984;8.548;2022-10-16T09:38:21;100093.03;;;20.78;80.23
32298;BME280;18782;48.984;8.548;2022-10-16T09:40:49;100092.88;;;20.87;81.19
32298;BME280;18782;48.984;8.548;2022-10-16T09:43:32;100098.06;;;20.90;80.27
32298;BME280;18782;48.984;8.548;2022-10-16T09:46:03;100098.81;;;20.97;79.76
32298;BME280;18782;48.984;8.548;2022-10-16T09:48:35;100104.91;;;20.97;79.74
32298;BME280;18782;48.984;8.548;2022-10-16T09:51:05;100108.38;;;21.01;79.91
32298;BME280;18782;48.984;8.548;2022-10-16T09:53:41;100111.75;;;21.07;79.30
32298;BME280;18782;48.984;8.548;2022-10-16T09:56:11;100108.19;;;21.11;79.20
32298;BME280;18782;48.984;8.548;2022-10-16T09:58:43;100107.97;;;21.24;77.86
32298;BME280;18782;48.984;8.548;2022-10-16T10:01:19;100116.47;;;21.41;76.86
32298;BME280;18782;48.984;8.548;2022-10-16T10:03:47;100126.06;;;21.42;76.47
32298;BME280;18782;48.984;8.548;2022-10-16T10:06:19;100127.84;;;21.39;76.27
32298;BME280;18782;48.984;8.548;2022-10-16T10:08:56;100134.00;;;21.36;76.36
32298;BME280;18782;48.984;8.548;2022-10-16T10:11:50;100143.66;;;21.29;76.73
32298;BME280;18782;48.984;8.548;2022-10-16T10:14:24;100142.75;;;21.35;76.61
32298;BME280;18782;48.984;8.548;2022-10-16T10:17:09;100142.81;;;21.29;76.93
32298;BME280;18782;48.984;8.548;2022-10-16T10:19:38;100140.16;;;21.33;76.38
32298;BME280;18782;48.984;8.548;2022-10-16T10:22:16;100134.22;;;21.21;76.75
32298;BME280;18782;48.984;8.548;2022-10-16T10:24:46;100128.94;;;21.24;77.61
32298;BME280;18782;48.984;8.548;2022-10-16T10:27:24;100129.78;;;21.24;77.78
32298;BME280;18782;48.984;8.548;2022-10-16T10:29:59;100123.75;;;21.21;77.65
32298;BME280;18782;48.984;8.548;2022-10-16T10:32:33;100134.13;;;21.27;76.59
32298;BME280;18782;48.984;8.548;2022-10-16T10:35:16;100132.97;;;21.45;76.50
32298;BME280;18782;48.984;8.548;2022-10-16T10:37:55;100138.06;;;21.54;76.44
32298;BME280;18782;48.984;8.548;2022-10-16T10:40:39;100120.13;;;21.80;75.32
32298;BME280;18782;48.984;8.548;2022-10-16T10:43:20;100123.97;;;22.07;74.50
32298;BME280;18782;48.984;8.548;2022-10-16T10:45:55;100122.03;;;22.19;71.64
32298;BME280;18782;48.984;8.548;2022-10-16T10:48:43;100129.78;;;22.65;72.11
32298;BME280;18782;48.984;8.548;2022-10-16T10:51:20;100124.25;;;23.16;69.05
32298;BME280;18782;48.984;8.548;2022-10-16T10:53:56;100119.31;;;23.74;68.87
32298;BME280;18782;48.984;8.548;2022-10-16T10:56:41;100126.28;;;24.07;65.80
32298;BME280;18782;48.984;8.548;2022-10-16T10:59:23;100127.31;;;24.33;65.52
32298;BME280;18782;48.984;8.548;2022-10-16T11:02:00;100131.25;;;24.49;63.30
32298;BME280;18782;48.984;8.548;2022-10-16T11:04:50;100120.50;;;24.26;62.71
32298;BME280;18782;48.984;8.548;2022-10-16T11:07:26;100128.31;;;24.27;64.33
32298;BME280;18782;48.984;8.548;2022-10-16T11:09:58;100134.47;;;24.28;63.43
32298;BME280;18782;48.984;8.548;2022-10-16T11:12:29;100146.59;;;24.32;62.79
32298;BME280;18782;48.984;8.548;2022-10-16T11:15:03;100130.34;;;24.19;62.64
32298;BME280;18782;48.984;8.548;2022-10-16T11:17:35;100126.59;;;24.26;63.02
32298;BME280;18782;48.984;8.548;2022-10-16T11:20:14;100127.66;;;24.52;61.98
32298;BME280;18782;48.984;8.548;2022-10-16T11:22:47;100118.88;;;24.81;61.19
32298;BME280;18782;48.984;8.548;2022-10-16T11:25:20;100124.81;;;24.87;60.83
32298;BME280;18782;48.984;8.548;2022-10-16T11:27:53;100123.47;;;25.02;61.36
32298;BME280;18782;48.984;8.548;2022-10-16T11:30:23;100117.09;;;25.09;61.89
32298;BME280;18782;48.984;8.548;2022-10-16T11:33:00;100106.88;;;25.53;58.59
32298;BME280;18782;48.984;8.548;2022-10-16T11:35:39;100109.38;;;25.56;59.75
32298;BME280;18782;48.984;8.548;2022-10-16T11:38:14;100110.91;;;25.63;57.76
32298;BME280;18782;48.984;8.548;2022-10-16T11:40:46;100098.25;;;25.74;56.97
32298;BME280;18782;48.984;8.548;2022-10-16T11:43:17;100098.72;;;26.09;56.63
32298;BME280;18782;48.984;8.548;2022-10-16T11:45:49;100101.25;;;26.12;54.58
32298;BME280;18782;48.984;8.548;2022-10-16T11:48:24;100096.31;;;26.26;54.63
32298;BME280;18782;48.984;8.548;2022-10-16T11:50:58;100091.72;;;26.08;52.04
32298;BME280;18782;48.984;8.548;2022-10-16T11:53:39;100094.84;;;25.94;52.33
32298;BME280;18782;48.984;8.548;2022-10-16T11:56:12;100097.78;;;25.87;52.34
32298;BME280;18782;48.984;8.548;2022-10-16T11:58:44;100093.56;;;26.06;53.11
32298;BME280;18782;48.984;8.548;2022-10-16T12:01:19;100094.81;;;26.19;53.35
32298;BME280;18782;48.984;8.548;2022-10-16T12:04:04;100091.97;;;26.02;51.74
32298;BME280;18782;48.984;8.548;2022-10-16T12:06:37;100088.91;;;26.13;52.55
32298;BME280;18782;48.984;8.548;2022-10-16T12:09:14;100098.50;;;26.39;51.58
32298;BME280;18782;48.984;8.548;2022-10-16T12:11:43;100095.53;;;26.01;50.77
32298;BME280;18782;48.984;8.548;2022-10-16T12:14:33;100098.00;;;26.06;51.87
32298;BME280;18782;48.984;8.548;2022-10-16T12:17:25;100098.38;;;25.95;51.67
32298;BME280;18782;48.984;8.548;2022-10-16T12:20:01;100100.72;;;25.28;52.97
32298;BME280;18782;48.984;8.548;2022-10-16T12:22:50;100090.50;;;24.89;53.91
32298;BME280;18782;48.984;8.548;2022-10-16T12:25:23;100088.13;;;24.53;54.23
32298;BME280;18782;48.984;8.548;2022-10-16T12:28:00;100094.00;;;24.32;55.93
32298;BME280;18782;48.984;8.548;2022-10-16T12:30:31;100093.84;;;24.38;56.22
32298;BME280;18782;48.984;8.548;2022-10-16T12:33:03;100085.06;;;24.39;58.66
32298;BME280;18782;48.984;8.548;2022-10-16T12:35:35;100090.03;;;24.48;59.14
32298;BME280;18782;48.984;8.548;2022-10-16T12:38:18;100087.97;;;24.59;57.79
32298;BME280;18782;48.984;8.548;2022-10-16T12:40:53;100081.97;;;24.54;57.07
32298;BME280;18782;48.984;8.548;2022-10-16T12:43:34;100083.41;;;24.64;56.98
32298;BME280;18782;48.984;8.548;2022-10-16T12:46:05;100085.78;;;24.72;57.15
32298;BME280;18782;48.984;8.548;2022-10-16T12:48:47;100084.00;;;24.72;58.46
32298;BME280;18782;48.984;8.548;2022-10-16T12:51:34;100083.94;;;24.76;57.01
32298;BME280;18782;48.984;8.548;2022-10-16T12:54:12;100090.91;;;24.77;57.91
32298;BME280;18782;48.984;8.548;2022-10-16T12:56:48;100081.31;;;24.74;58.44
32298;BME280;18782;48.984;8.548;2022-10-16T12:59:28;100088.59;;;24.94;59.14
32298;BME280;18782;48.984;8.548;2022-10-16T13:02:09;100090.13;;;25.01;59.72
32298;BME280;18782;48.984;8.548;2022-10-16T13:04:50;100101.97;;;24.88;59.39
32298;BME280;18782;48.984;8.548;2022-10-16T13:07:37;100098.94;;;24.72;59.48
32298;BME280;18782;48.984;8.548;2022-10-16T13:10:18;100089.88;;;24.54;60.14
32298;BME280;18782;48.984;8.548;2022-10-16T13:15:58;100101.09;;;24.30;60.21